createdAt,value
2018-01-20T00:02:12.352Z,99.90
2018-01-20T00:04:38.615Z,99.90
2018-01-20T00:07:04.858Z,99.90
2018-01-20T00:09:43.322Z,99.90
2018-01-20T00:12:10.297Z,99.90
2018-01-20T00:14:36.569Z,99.90
2018-01-20T00:17:03.674Z,99.90
2018-01-20T00:19:30.676Z,99.90
2018-01-20T00:21:56.931Z,99.90
2018-01-20T00:24:23.210Z,99.90
2018-01-20T00:26:50.263Z,99.90
2018-01-20T00:29:16.515Z,99.90
2018-01-20T00:31:43.539Z,99.90
2018-01-20T00:34:09.804Z,99.90
2018-01-20T00:36:36.830Z,99.90
2018-01-20T00:39:03.134Z,99.90
2018-01-20T00:41:29.573Z,99.90
2018-01-20T00:43:56.577Z,99.90
2018-01-20T00:46:22.819Z,99.90
2018-01-20T00:48:49.117Z,99.90
2018-01-20T00:51:15.416Z,99.90
2018-01-20T00:53:41.668Z,99.90
2018-01-20T00:56:07.957Z,99.90
2018-01-20T00:58:34.197Z,99.90
2018-01-20T01:01:00.461Z,99.90
2018-01-20T01:03:26.717Z,99.90
2018-01-20T01:05:52.983Z,99.90
2018-01-20T01:08:19.244Z,99.90
2018-01-20T01:10:45.522Z,99.90
2018-01-20T01:13:11.781Z,99.90
2018-01-20T01:15:38.033Z,99.90
2018-01-20T01:18:04.547Z,99.90
2018-01-20T01:20:30.752Z,99.90
2018-01-20T01:22:57.753Z,99.90
2018-01-20T01:25:24.022Z,99.90
2018-01-20T01:27:50.270Z,99.90
2018-01-20T01:30:16.545Z,99.90
2018-01-20T01:32:42.768Z,99.90
2018-01-20T01:35:09.770Z,99.90
2018-01-20T01:37:35.986Z,99.90
2018-01-20T01:40:02.257Z,99.90
2018-01-20T01:42:28.502Z,99.90
2018-01-20T01:44:54.744Z,99.90
2018-01-20T01:47:21.011Z,99.90
2018-01-20T01:49:47.257Z,99.90
2018-01-20T01:52:13.497Z,99.90
2018-01-20T01:54:39.748Z,99.90
2018-01-20T01:57:06.723Z,99.90
2018-01-20T01:59:32.977Z,99.90
2018-01-20T02:01:59.194Z,99.90
2018-01-20T02:04:25.434Z,99.90
2018-01-20T02:06:52.426Z,99.90
2018-01-20T02:09:18.663Z,99.90
2018-01-20T02:11:44.891Z,99.90
2018-01-20T02:14:11.149Z,99.90
2018-01-20T02:16:37.387Z,99.90
2018-01-20T02:19:03.893Z,99.90
2018-01-20T02:21:30.866Z,99.90
2018-01-20T02:23:57.315Z,99.90
2018-01-20T02:26:23.564Z,99.90
2018-01-20T02:28:49.811Z,99.90
2018-01-20T02:31:16.062Z,99.90
2018-01-20T02:33:42.307Z,99.90
2018-01-20T02:36:08.559Z,99.90
2018-01-20T02:38:34.777Z,99.90
2018-01-20T02:41:01.008Z,99.90
2018-01-20T02:43:27.276Z,99.90
2018-01-20T02:45:53.510Z,99.90
2018-01-20T02:48:19.743Z,99.90
2018-01-20T02:50:45.990Z,99.90
2018-01-20T02:53:12.223Z,99.90
2018-01-20T02:55:38.455Z,99.90
2018-01-20T02:58:04.697Z,99.90
2018-01-20T03:00:30.954Z,99.90
2018-01-20T03:02:57.194Z,99.90
2018-01-20T03:05:23.437Z,99.90
2018-01-20T03:07:49.694Z,99.90
2018-01-20T03:10:15.954Z,99.90
2018-01-20T03:12:42.189Z,99.90
2018-01-20T03:15:08.428Z,99.90
2018-01-20T03:17:34.715Z,99.90
2018-01-20T03:20:00.935Z,99.90
2018-01-20T03:22:27.910Z,99.90
2018-01-20T03:24:54.159Z,99.90
2018-01-20T03:27:20.398Z,99.90
2018-01-20T03:29:46.898Z,99.90
2018-01-20T03:32:13.140Z,99.90
2018-01-20T03:34:39.366Z,99.90
2018-01-20T03:37:06.231Z,99.90
2018-01-20T03:39:32.457Z,99.90
2018-01-20T03:41:58.958Z,99.90
2018-01-20T03:44:25.185Z,99.90
2018-01-20T03:46:52.175Z,99.90
2018-01-20T03:49:18.408Z,99.90
2018-01-20T03:51:44.648Z,99.90
2018-01-20T03:54:10.915Z,99.90
2018-01-20T03:56:37.134Z,99.90
2018-01-20T03:59:03.643Z,99.90
2018-01-20T04:01:30.590Z,99.90
2018-01-20T04:03:56.805Z,99.90
2018-01-20T04:06:23.055Z,99.90
2018-01-20T04:08:49.273Z,99.90
2018-01-20T04:11:15.537Z,99.90
2018-01-20T04:13:41.780Z,99.90
2018-01-20T04:16:09.120Z,99.90
2018-01-20T04:18:35.403Z,99.90
2018-01-20T04:21:01.636Z,99.90
2018-01-20T04:23:27.877Z,99.90
2018-01-20T04:25:54.141Z,99.90
2018-01-20T04:28:21.119Z,99.90
2018-01-20T04:30:47.349Z,99.90
2018-01-20T04:33:13.597Z,99.90
2018-01-20T04:35:39.845Z,99.90
2018-01-20T04:38:06.095Z,99.90
2018-01-20T04:40:32.354Z,99.90
2018-01-20T04:42:58.583Z,99.90
2018-01-20T04:45:25.105Z,99.90
2018-01-20T04:47:51.310Z,99.90
2018-01-20T04:50:17.556Z,99.90
2018-01-20T04:52:44.562Z,99.90
2018-01-20T04:55:10.824Z,99.90
2018-01-20T04:57:37.100Z,99.90
2018-01-20T05:00:04.128Z,99.90
2018-01-20T05:02:30.377Z,99.90
2018-01-20T05:04:56.626Z,99.90
2018-01-20T05:07:22.888Z,99.90
2018-01-20T05:09:49.404Z,99.90
2018-01-20T05:12:15.635Z,99.90
2018-01-20T05:14:41.863Z,99.90
2018-01-20T05:17:08.089Z,99.90
2018-01-20T05:19:34.346Z,99.30
2018-01-20T05:22:00.594Z,97.40
2018-01-20T05:24:26.853Z,94.10
2018-01-20T05:26:53.099Z,92.80
2018-01-20T05:29:20.105Z,94.50
2018-01-20T05:31:46.357Z,94.50
2018-01-20T05:34:12.633Z,95.40
2018-01-20T05:36:38.876Z,96.00
2018-01-20T05:39:05.185Z,96.50
2018-01-20T05:41:31.430Z,96.90
2018-01-20T05:43:57.681Z,97.30
2018-01-20T05:46:23.941Z,97.60
2018-01-20T05:48:50.223Z,97.90
2018-01-20T05:51:16.740Z,98.40
2018-01-20T05:53:43.719Z,98.60
2018-01-20T05:56:09.969Z,98.60
2018-01-20T05:58:36.220Z,98.90
2018-01-20T06:01:02.464Z,99.10
2018-01-20T06:03:28.736Z,99.40
2018-01-20T06:05:54.989Z,99.50
2018-01-20T06:08:21.229Z,99.70
2018-01-20T06:10:47.490Z,99.90
2018-01-20T06:13:13.746Z,99.90
2018-01-20T06:15:39.984Z,99.90
2018-01-20T06:18:06.227Z,99.90
2018-01-20T06:20:32.482Z,99.90
2018-01-20T06:22:58.740Z,99.90
2018-01-20T06:25:24.996Z,99.90
2018-01-20T06:27:51.256Z,99.90
2018-01-20T06:30:17.508Z,99.90
2018-01-20T06:32:51.408Z,99.90
2018-01-20T06:35:17.627Z,99.90
2018-01-20T06:37:43.859Z,99.90
2018-01-20T06:40:10.130Z,99.90
2018-01-20T06:42:36.394Z,99.60
2018-01-20T06:45:03.396Z,99.90
2018-01-20T06:47:29.663Z,99.90
2018-01-20T06:49:55.913Z,99.90
2018-01-20T06:52:22.163Z,99.90
2018-01-20T06:54:48.406Z,99.30
2018-01-20T06:57:14.654Z,98.80
2018-01-20T06:59:40.916Z,98.60
2018-01-20T07:02:07.204Z,98.50
2018-01-20T07:04:33.464Z,98.30
2018-01-20T07:06:59.744Z,98.00
2018-01-20T07:09:25.979Z,97.50
2018-01-20T07:11:52.256Z,97.00
2018-01-20T07:14:18.472Z,97.00
2018-01-20T07:16:45.005Z,96.90
2018-01-20T07:19:11.239Z,96.30
2018-01-20T07:21:38.242Z,95.50
2018-01-20T07:24:04.497Z,95.50
2018-01-20T07:26:31.256Z,95.50
2018-01-20T07:28:57.517Z,95.60
2018-01-20T07:31:24.492Z,95.20
2018-01-20T07:33:51.053Z,95.20
2018-01-20T07:36:17.291Z,95.60
2018-01-20T07:38:43.529Z,95.80
2018-01-20T07:41:09.803Z,97.10
2018-01-20T07:43:36.032Z,98.30
2018-01-20T07:46:03.046Z,97.20
2018-01-20T07:48:30.050Z,94.80
2018-01-20T07:50:56.289Z,94.70
2018-01-20T07:53:22.537Z,93.00
2018-01-20T07:55:48.768Z,91.40
2018-01-20T07:58:15.021Z,91.10
2018-01-20T08:00:41.326Z,91.40
2018-01-20T08:03:08.319Z,92.20
2018-01-20T08:05:34.573Z,92.20
2018-01-20T08:08:00.805Z,93.90
2018-01-20T08:10:27.076Z,94.30
2018-01-20T08:12:53.332Z,93.50
2018-01-20T08:15:20.348Z,91.00
2018-01-20T08:17:46.588Z,90.90
2018-01-20T08:20:12.826Z,89.90
2018-01-20T08:22:39.060Z,88.20
2018-01-20T08:25:05.317Z,88.20
2018-01-20T08:27:31.585Z,88.20
2018-01-20T08:29:57.812Z,88.30
2018-01-20T08:32:24.101Z,87.80
2018-01-20T08:34:50.339Z,89.00
2018-01-20T08:37:16.643Z,90.60
2018-01-20T08:39:42.915Z,92.00
2018-01-20T08:42:09.172Z,92.90
2018-01-20T08:44:35.476Z,94.20
2018-01-20T08:47:01.711Z,95.50
2018-01-20T08:49:27.984Z,95.90
2018-01-20T08:51:54.258Z,95.70
2018-01-20T08:54:20.516Z,95.70
2018-01-20T08:56:46.770Z,95.90
2018-01-20T08:59:13.046Z,96.30
2018-01-20T09:01:39.311Z,96.50
2018-01-20T09:04:05.541Z,96.70
2018-01-20T09:06:31.830Z,96.40
2018-01-20T09:08:58.075Z,96.50
2018-01-20T09:11:25.081Z,96.20
2018-01-20T09:13:51.370Z,96.20
2018-01-20T09:16:17.593Z,95.50
2018-01-20T09:18:43.870Z,95.40
2018-01-20T09:21:10.863Z,94.60
2018-01-20T09:23:37.126Z,94.60
2018-01-20T09:26:03.390Z,94.50
2018-01-20T09:28:29.631Z,94.50
2018-01-20T09:30:55.895Z,94.50
2018-01-20T09:33:22.889Z,94.00
2018-01-20T09:35:49.171Z,94.00
2018-01-20T09:38:15.420Z,94.00
2018-01-20T09:40:41.662Z,93.90
2018-01-20T09:43:07.925Z,93.60
2018-01-20T09:45:34.966Z,92.90
2018-01-20T09:48:01.260Z,92.90
2018-01-20T09:50:27.501Z,93.10
2018-01-20T09:52:53.742Z,93.70
2018-01-20T09:55:20.042Z,94.70
2018-01-20T09:57:47.038Z,96.60
2018-01-20T10:00:13.351Z,96.80
2018-01-20T10:02:40.396Z,97.70
2018-01-20T10:05:07.384Z,98.10
2018-01-20T10:07:33.641Z,98.10
2018-01-20T10:09:59.923Z,98.30
2018-01-20T10:12:26.225Z,98.50
2018-01-20T10:14:52.446Z,98.70
2018-01-20T10:17:18.711Z,98.90
2018-01-20T10:19:44.958Z,98.90
2018-01-20T10:22:11.252Z,98.90
2018-01-20T10:24:38.259Z,98.70
2018-01-20T10:27:04.790Z,98.70
2018-01-20T10:29:31.035Z,98.60
2018-01-20T10:31:57.314Z,98.70
2018-01-20T10:34:23.576Z,98.90
2018-01-20T10:36:50.566Z,99.00
2018-01-20T10:39:16.813Z,99.00
2018-01-20T10:41:43.074Z,99.10
2018-01-20T10:44:09.317Z,98.90
2018-01-20T10:46:35.596Z,98.80
2018-01-20T10:49:01.861Z,98.70
2018-01-20T10:51:28.128Z,98.60
2018-01-20T10:53:54.387Z,98.60
2018-01-20T10:56:20.640Z,98.30
2018-01-20T10:58:46.915Z,98.10
2018-01-20T11:01:13.179Z,98.00
2018-01-20T11:03:39.468Z,97.50
2018-01-20T11:06:05.725Z,97.30
2018-01-20T11:08:32.740Z,97.40
2018-01-20T11:10:59.010Z,97.30
2018-01-20T11:13:25.259Z,97.10
2018-01-20T11:15:51.553Z,97.10
2018-01-20T11:18:17.800Z,96.90
2018-01-20T11:20:44.047Z,96.80
2018-01-20T11:23:10.370Z,96.70
2018-01-20T11:25:36.602Z,96.70
2018-01-20T11:28:02.912Z,96.60
2018-01-20T11:30:29.256Z,96.70
2018-01-20T11:32:56.282Z,96.60
2018-01-20T11:35:22.552Z,96.60
2018-01-20T11:37:49.562Z,96.50
2018-01-20T11:40:15.814Z,96.50
2018-01-20T11:42:42.071Z,96.60
2018-01-20T11:45:08.361Z,96.60
2018-01-20T11:47:34.611Z,96.50
2018-01-20T11:50:00.908Z,96.40
2018-01-20T11:52:27.164Z,96.40
2018-01-20T11:54:54.200Z,96.10
2018-01-20T11:57:20.438Z,96.10
2018-01-20T11:59:46.738Z,95.70
2018-01-20T12:02:13.043Z,95.60
2018-01-20T12:04:40.032Z,94.60
2018-01-20T12:07:06.330Z,94.60
2018-01-20T12:09:32.584Z,93.90
2018-01-20T12:11:58.854Z,93.80
2018-01-20T12:14:25.108Z,94.10
2018-01-20T12:16:51.372Z,94.50
2018-01-20T12:19:17.710Z,95.00
2018-01-20T12:21:44.015Z,96.10
2018-01-20T12:24:10.357Z,97.10
2018-01-20T12:26:36.657Z,97.40
2018-01-20T12:29:02.956Z,96.10
2018-01-20T12:31:29.266Z,95.60
2018-01-20T12:33:57.076Z,95.40
2018-01-20T12:36:23.369Z,95.40
2018-01-20T12:38:49.680Z,95.60
2018-01-20T12:41:15.995Z,95.90
2018-01-20T12:43:42.292Z,95.90
2018-01-20T12:46:08.613Z,96.00
2018-01-20T12:48:35.040Z,96.30
2018-01-20T12:51:01.343Z,96.60
2018-01-20T12:53:28.600Z,96.90
2018-01-20T12:55:54.856Z,96.90
2018-01-20T12:58:21.851Z,96.90
2018-01-20T13:00:48.149Z,96.90
2018-01-20T13:03:14.417Z,97.00
2018-01-20T13:05:40.720Z,97.10
2018-01-20T13:08:07.701Z,97.30
2018-01-20T13:10:33.953Z,97.30
2018-01-20T13:13:00.236Z,97.30
2018-01-20T13:15:26.559Z,97.40
2018-01-20T13:17:52.813Z,97.40
2018-01-20T13:20:19.079Z,97.40
2018-01-20T13:22:46.089Z,97.80
2018-01-20T13:25:12.369Z,97.80
2018-01-20T13:27:38.661Z,97.70
2018-01-20T13:30:04.911Z,97.70
2018-01-20T13:32:31.200Z,97.60
2018-01-20T13:34:57.500Z,97.70
2018-01-20T13:37:23.758Z,97.80
2018-01-20T13:39:50.036Z,97.80
2018-01-20T13:42:17.061Z,97.90
2018-01-20T13:44:43.321Z,97.90
2018-01-20T13:47:09.602Z,97.90
2018-01-20T13:49:35.911Z,98.40
2018-01-20T13:52:05.285Z,98.30
2018-01-20T13:54:31.609Z,98.30
2018-01-20T13:56:57.910Z,97.90
2018-01-20T13:59:24.941Z,97.50
2018-01-20T14:01:51.256Z,97.40
2018-01-20T14:04:17.506Z,98.90
2018-01-20T14:06:43.755Z,99.10
2018-01-20T14:09:10.036Z,99.10
2018-01-20T14:11:36.351Z,97.50
2018-01-20T14:14:02.633Z,96.30
2018-01-20T14:16:29.714Z,94.80
2018-01-20T14:18:56.026Z,94.60
2018-01-20T14:21:23.036Z,94.10
2018-01-20T14:23:49.288Z,94.00
2018-01-20T14:26:15.552Z,93.80
2018-01-20T14:28:41.862Z,93.30
2018-01-20T14:31:08.161Z,92.80
2018-01-20T14:33:35.238Z,92.70
2018-01-20T14:36:01.504Z,92.60
2018-01-20T14:38:27.720Z,92.90
2018-01-20T14:40:54.026Z,93.10
2018-01-20T14:43:20.277Z,93.10
2018-01-20T14:45:47.306Z,93.10
2018-01-20T14:48:13.570Z,93.10
2018-01-20T14:50:40.568Z,92.90
2018-01-20T14:53:06.855Z,92.90
2018-01-20T14:55:33.088Z,93.00
2018-01-20T14:57:59.366Z,92.90
2018-01-20T15:00:26.392Z,93.00
2018-01-20T15:02:53.010Z,93.00
2018-01-20T15:05:19.290Z,93.10
2018-01-20T15:07:45.559Z,93.00
2018-01-20T15:10:12.609Z,92.90
2018-01-20T15:12:39.616Z,92.90
2018-01-20T15:15:05.920Z,92.80
2018-01-20T15:17:32.239Z,92.70
2018-01-20T15:19:58.526Z,92.70
2018-01-20T15:22:24.796Z,92.80
2018-01-20T15:24:51.167Z,92.90
2018-01-20T15:27:17.442Z,92.90
2018-01-20T15:29:43.729Z,93.30
2018-01-20T15:32:10.011Z,93.20
2018-01-20T15:34:37.024Z,93.60
2018-01-20T15:37:03.360Z,93.60
2018-01-20T15:39:29.659Z,93.90
2018-01-20T15:41:55.977Z,94.30
2018-01-20T15:44:22.970Z,95.00
2018-01-20T15:46:49.199Z,95.00
2018-01-20T15:49:16.211Z,95.60
2018-01-20T15:51:42.475Z,95.60
2018-01-20T15:54:08.800Z,95.70
2018-01-20T15:56:35.055Z,95.80
2018-01-20T15:59:01.371Z,96.00
2018-01-20T16:01:27.733Z,96.20
2018-01-20T16:03:54.009Z,96.40
2018-01-20T16:06:20.348Z,96.70
2018-01-20T16:08:46.627Z,97.10
2018-01-20T16:11:12.929Z,97.00
2018-01-20T16:13:39.938Z,97.20
2018-01-20T16:16:06.273Z,97.20
2018-01-20T16:18:32.536Z,97.20
2018-01-20T16:20:58.847Z,97.30
2018-01-20T16:23:25.138Z,97.20
2018-01-20T16:25:52.151Z,97.30
2018-01-20T16:28:18.393Z,97.30
2018-01-20T16:30:44.693Z,97.30
2018-01-20T16:33:11.705Z,97.10
2018-01-20T16:35:38.030Z,97.10
2018-01-20T16:38:04.303Z,97.00
2018-01-20T16:40:30.557Z,97.00
2018-01-20T16:42:56.854Z,97.30
2018-01-20T16:45:23.131Z,97.80
2018-01-20T16:47:49.406Z,97.50
2018-01-20T16:50:16.426Z,97.10
2018-01-20T16:52:42.791Z,97.00
2018-01-20T16:55:09.824Z,97.10
2018-01-20T16:57:36.147Z,97.10
2018-01-20T17:00:02.523Z,96.90
2018-01-20T17:02:28.842Z,96.90
2018-01-20T17:04:55.130Z,96.90
2018-01-20T17:07:22.139Z,97.00
2018-01-20T17:09:48.410Z,97.00
2018-01-20T17:12:14.730Z,96.90
2018-01-20T17:14:40.966Z,96.90
2018-01-20T17:17:07.265Z,96.90
2018-01-20T17:19:33.540Z,96.90
2018-01-20T17:21:59.813Z,97.00
2018-01-20T17:24:26.127Z,96.90
2018-01-20T17:26:52.388Z,96.90
2018-01-20T17:29:18.681Z,96.90
2018-01-20T17:31:44.923Z,97.00
2018-01-20T17:34:11.256Z,97.20
2018-01-20T17:36:37.535Z,97.20
2018-01-20T17:39:03.839Z,97.20
2018-01-20T17:41:30.107Z,97.20
2018-01-20T17:43:56.400Z,97.00
2018-01-20T17:46:22.777Z,96.90
2018-01-20T17:48:49.108Z,96.60
2018-01-20T17:51:15.458Z,96.40
2018-01-20T17:53:41.847Z,96.30
2018-01-20T17:56:08.133Z,96.40
2018-01-20T17:58:35.169Z,96.70
2018-01-20T18:01:01.561Z,96.70
2018-01-20T18:03:27.856Z,96.70
2018-01-20T18:05:54.918Z,96.80
2018-01-20T18:08:21.210Z,96.70
2018-01-20T18:10:47.486Z,96.70
2018-01-20T18:13:13.742Z,96.40
2018-01-20T18:15:40.050Z,96.30
2018-01-20T18:18:06.373Z,96.40
2018-01-20T18:20:32.696Z,96.50
2018-01-20T18:22:58.991Z,96.60
2018-01-20T18:25:25.332Z,96.70
2018-01-20T18:27:51.592Z,96.80
2018-01-20T18:30:17.936Z,96.90
2018-01-20T18:32:45.027Z,97.10
2018-01-20T18:35:11.333Z,97.10
2018-01-20T18:37:37.641Z,97.30
2018-01-20T18:40:03.941Z,97.50
2018-01-20T18:42:31.014Z,98.10
2018-01-20T18:44:57.312Z,98.10
2018-01-20T18:47:23.701Z,98.30
2018-01-20T18:49:50.018Z,98.60
2018-01-20T18:52:17.073Z,99.00
2018-01-20T18:54:43.651Z,99.00
2018-01-20T18:57:09.992Z,99.20
2018-01-20T18:59:36.317Z,99.30
2018-01-20T19:02:02.634Z,99.40
2018-01-20T19:04:28.904Z,99.60
2018-01-20T19:06:55.234Z,99.70
2018-01-20T19:09:21.592Z,99.90
2018-01-20T19:11:47.882Z,99.90
2018-01-20T19:14:14.190Z,99.90
2018-01-20T19:16:40.533Z,99.90
2018-01-20T19:19:06.921Z,99.90
2018-01-20T19:21:33.262Z,99.90
2018-01-20T19:23:59.527Z,99.90
2018-01-20T19:26:26.629Z,99.90
2018-01-20T19:28:52.949Z,99.90
2018-01-20T19:31:19.357Z,99.90
2018-01-20T19:33:45.690Z,99.90
2018-01-20T19:36:12.002Z,99.90
2018-01-20T19:38:38.370Z,99.90
2018-01-20T19:41:04.747Z,99.90
2018-01-20T19:43:31.827Z,99.90
2018-01-20T19:45:58.200Z,99.90
2018-01-20T19:48:24.703Z,99.90
2018-01-20T19:50:51.822Z,99.90
2018-01-20T19:53:18.177Z,99.90
2018-01-20T19:55:44.585Z,99.90
2018-01-20T19:58:10.907Z,99.90
2018-01-20T20:00:38.007Z,99.90
2018-01-20T20:03:04.401Z,99.90
2018-01-20T20:05:31.546Z,99.90
2018-01-20T20:07:57.879Z,99.90
2018-01-20T20:10:24.489Z,99.90
2018-01-20T20:12:50.860Z,99.90
2018-01-20T20:15:17.159Z,99.90
2018-01-20T20:17:43.522Z,99.90
2018-01-20T20:20:09.860Z,99.90
2018-01-20T20:22:36.256Z,99.90
2018-01-20T20:25:02.620Z,99.90
2018-01-20T20:27:29.707Z,99.90
2018-01-20T20:29:56.041Z,99.90
2018-01-20T20:32:22.376Z,99.90
2018-01-20T20:34:48.727Z,99.90
2018-01-20T20:37:16.017Z,99.90
2018-01-20T20:39:42.407Z,99.90
2018-01-20T20:42:09.518Z,99.90
2018-01-20T20:44:35.837Z,99.90
2018-01-20T20:47:02.205Z,99.90
2018-01-20T20:49:28.553Z,99.90
2018-01-20T20:51:55.189Z,99.90
2018-01-20T20:54:21.530Z,99.90
2018-01-20T20:56:47.855Z,99.90
2018-01-20T20:59:14.213Z,99.90
2018-01-20T21:01:40.547Z,99.90
2018-01-20T21:04:06.893Z,99.90
2018-01-20T21:06:33.213Z,99.90
2018-01-20T21:09:00.328Z,99.90
2018-01-20T21:11:26.655Z,99.90
2018-01-20T21:13:52.981Z,99.90
2018-01-20T21:16:20.020Z,99.90
2018-01-20T21:18:46.322Z,99.90
2018-01-20T21:21:12.654Z,99.90
2018-01-20T21:23:38.934Z,99.90
2018-01-20T21:26:05.196Z,99.90
2018-01-20T21:28:31.617Z,99.90
2018-01-20T21:30:57.994Z,99.90
2018-01-20T21:33:24.306Z,99.90
2018-01-20T21:35:51.410Z,99.90
2018-01-20T21:38:18.167Z,99.90
2018-01-20T21:40:44.499Z,99.90
2018-01-20T21:43:10.783Z,99.90
2018-01-20T21:45:37.207Z,99.90
2018-01-20T21:48:03.526Z,99.90
2018-01-20T21:50:30.428Z,99.90
2018-01-20T21:52:56.816Z,99.90
2018-01-20T21:55:23.144Z,99.90
2018-01-20T21:57:49.464Z,99.90
2018-01-20T22:00:15.888Z,99.90
2018-01-20T22:02:42.222Z,99.90
2018-01-20T22:05:08.575Z,99.90
2018-01-20T22:07:34.869Z,99.90
2018-01-20T22:10:01.163Z,99.90
2018-01-20T22:12:27.465Z,99.90
2018-01-20T22:14:53.760Z,99.90
2018-01-20T22:17:20.084Z,99.90
2018-01-20T22:19:46.424Z,99.90
2018-01-20T22:22:12.697Z,99.90
2018-01-20T22:24:39.751Z,99.90
2018-01-20T22:27:06.047Z,99.90
2018-01-20T22:29:32.354Z,99.90
2018-01-20T22:31:59.368Z,99.90
2018-01-20T22:34:25.636Z,99.90
2018-01-20T22:36:51.945Z,99.90
2018-01-20T22:39:18.207Z,99.90
2018-01-20T22:41:44.503Z,99.90
2018-01-20T22:44:10.770Z,99.90
2018-01-20T22:46:37.084Z,99.90
2018-01-20T22:49:03.367Z,99.90
2018-01-20T22:51:29.628Z,99.90
2018-01-20T22:53:55.891Z,99.90
2018-01-20T22:56:22.153Z,99.90
2018-01-20T22:58:48.415Z,99.90
2018-01-20T23:01:20.832Z,99.90
2018-01-20T23:03:47.133Z,99.90
2018-01-20T23:06:13.422Z,99.90
2018-01-20T23:08:39.664Z,99.90
2018-01-20T23:11:05.924Z,99.90
2018-01-20T23:13:32.901Z,99.90
2018-01-20T23:15:59.171Z,99.90
2018-01-20T23:18:25.400Z,99.90
2018-01-20T23:20:51.635Z,99.90
2018-01-20T23:23:19.814Z,99.90
2018-01-20T23:25:46.062Z,99.90
2018-01-20T23:28:12.308Z,99.90
2018-01-20T23:30:38.564Z,99.90
2018-01-20T23:33:04.836Z,99.90
2018-01-20T23:35:31.837Z,99.90
2018-01-20T23:37:58.077Z,99.90
2018-01-20T23:40:24.366Z,99.90
2018-01-20T23:42:51.382Z,99.90
2018-01-20T23:45:17.667Z,99.90
2018-01-20T23:47:43.936Z,99.90
2018-01-20T23:50:10.934Z,99.90
2018-01-20T23:52:37.193Z,99.90
2018-01-20T23:55:03.726Z,99.90
2018-01-20T23:57:29.964Z,99.90
2018-01-20T23:59:56.202Z,99.90
